createdAt,value
2023-04-20T00:01:29.035Z,76874.66
2023-04-20T00:03:57.144Z,76880.75
2023-04-20T00:06:29.608Z,76880.75
2023-04-20T00:08:57.348Z,76876.69
2023-04-20T00:11:24.434Z,76876.69
2023-04-20T00:13:51.652Z,76872.66
2023-04-20T00:16:18.964Z,76888.88
2023-04-20T00:18:47.184Z,76892.91
2023-04-20T00:21:14.312Z,76888.88
2023-04-20T00:23:42.553Z,76880.75
2023-04-20T00:26:09.349Z,76880.75
2023-04-20T00:28:37.828Z,76894.94
2023-04-20T00:31:06.325Z,76876.69
2023-04-20T00:33:33.939Z,76876.69
2023-04-20T00:36:01.094Z,76872.66
2023-04-20T00:38:28.667Z,76868.59
2023-04-20T00:40:56.040Z,76866.56
2023-04-20T00:43:24.793Z,76868.59
2023-04-20T00:45:52.436Z,76864.53
2023-04-20T00:48:20.724Z,76876.69
2023-04-20T00:50:50.058Z,76884.81
2023-04-20T00:53:19.119Z,76884.81
2023-04-20T00:55:46.039Z,76888.88
2023-04-20T00:58:13.853Z,76888.88
2023-04-20T01:00:40.773Z,76896.97
2023-04-20T01:03:09.014Z,76896.97
2023-04-20T01:05:36.328Z,76896.97
2023-04-20T01:08:03.870Z,76892.91
2023-04-20T01:10:30.703Z,76901.03
2023-04-20T01:12:58.657Z,76899.00
2023-04-20T01:15:26.293Z,76896.97
2023-04-20T01:17:54.257Z,76892.91
2023-04-20T01:20:23.922Z,76896.97
2023-04-20T01:22:53.706Z,76901.03
2023-04-20T01:25:21.500Z,76892.91
2023-04-20T01:27:49.291Z,76896.97
2023-04-20T01:30:17.295Z,76888.88
2023-04-20T01:32:45.451Z,76892.91
2023-04-20T01:35:12.598Z,76892.91
2023-04-20T01:37:40.847Z,76890.88
2023-04-20T01:40:12.629Z,76888.88
2023-04-20T01:42:40.602Z,76886.84
2023-04-20T01:45:08.929Z,76880.75
2023-04-20T01:47:37.100Z,76882.78
2023-04-20T01:50:04.253Z,76880.75
2023-04-20T01:52:31.962Z,76884.81
2023-04-20T01:54:59.378Z,76884.81
2023-04-20T01:57:27.171Z,76882.78
2023-04-20T01:59:54.263Z,76880.75
2023-04-20T02:02:21.911Z,76888.88
2023-04-20T02:04:48.978Z,76888.88
2023-04-20T02:07:16.732Z,76884.81
2023-04-20T02:09:43.767Z,76888.88
2023-04-20T02:12:11.014Z,76888.88
2023-04-20T02:14:39.675Z,76888.88
2023-04-20T02:17:10.587Z,76892.91
2023-04-20T02:19:38.160Z,76892.91
2023-04-20T02:22:05.659Z,76892.91
2023-04-20T02:24:32.996Z,76886.84
2023-04-20T02:27:01.215Z,76892.91
2023-04-20T02:29:28.731Z,76894.94
2023-04-20T02:31:56.149Z,76892.91
2023-04-20T02:34:23.559Z,76894.94
2023-04-20T02:36:50.882Z,76892.91
2023-04-20T02:39:18.042Z,76886.84
2023-04-20T02:41:45.884Z,76888.88
2023-04-20T02:44:13.061Z,76884.81
2023-04-20T02:46:41.138Z,76892.91
2023-04-20T02:49:08.398Z,76894.94
2023-04-20T02:51:40.863Z,76896.97
2023-04-20T02:54:08.354Z,76896.97
2023-04-20T02:56:36.070Z,76905.09
2023-04-20T02:59:07.584Z,76905.09
2023-04-20T03:01:43.979Z,76911.16
2023-04-20T03:04:15.569Z,76913.19
2023-04-20T03:06:51.061Z,76915.22
2023-04-20T03:09:23.830Z,76915.22
2023-04-20T03:12:22.475Z,76917.25
2023-04-20T03:15:10.297Z,76913.19
2023-04-20T03:17:57.042Z,76913.19
2023-04-20T03:20:24.943Z,76911.16
2023-04-20T03:22:52.194Z,76913.19
2023-04-20T03:25:22.445Z,76903.06
2023-04-20T03:27:59.751Z,76913.19
2023-04-20T03:30:27.220Z,76917.25
2023-04-20T03:33:01.115Z,76913.19
2023-04-20T03:35:28.494Z,76921.31
2023-04-20T03:37:55.709Z,76921.31
2023-04-20T03:40:23.086Z,76927.38
2023-04-20T03:42:50.611Z,76937.53
2023-04-20T03:45:17.609Z,76933.47
2023-04-20T03:47:45.040Z,76941.56
2023-04-20T03:50:11.896Z,76939.53
2023-04-20T03:52:41.069Z,76945.63
2023-04-20T03:55:10.045Z,76949.69
2023-04-20T03:57:41.223Z,76955.75
2023-04-20T04:00:10.932Z,76957.78
2023-04-20T04:02:47.358Z,76957.78
2023-04-20T04:05:21.289Z,76957.78
2023-04-20T04:07:50.515Z,76963.88
2023-04-20T04:10:19.141Z,76967.94
2023-04-20T04:12:46.690Z,76965.91
2023-04-20T04:15:14.282Z,76974.00
2023-04-20T04:17:50.275Z,76969.94
2023-04-20T04:20:17.444Z,76969.94
2023-04-20T04:22:45.221Z,76974.00
2023-04-20T04:25:34.073Z,76961.84
2023-04-20T04:28:01.690Z,76957.78
2023-04-20T04:30:30.991Z,76955.75
2023-04-20T04:32:59.972Z,76945.63
2023-04-20T04:35:27.812Z,76941.56
2023-04-20T04:37:56.047Z,76933.47
2023-04-20T04:40:24.006Z,76929.41
2023-04-20T04:42:53.855Z,76929.41
2023-04-20T04:45:21.133Z,76913.19
2023-04-20T04:47:48.675Z,76909.13
2023-04-20T04:50:15.914Z,76909.13
2023-04-20T04:52:43.316Z,76901.03
2023-04-20T04:55:10.616Z,76903.06
2023-04-20T04:57:38.712Z,76905.09
2023-04-20T05:00:09.808Z,76905.09
2023-04-20T05:02:37.547Z,76901.03
2023-04-20T05:05:06.498Z,76901.03
2023-04-20T05:07:34.721Z,76901.03
2023-04-20T05:10:02.225Z,76892.91
2023-04-20T05:12:29.406Z,76909.13
2023-04-20T05:14:56.302Z,76872.66
2023-04-20T05:17:23.541Z,76864.53
2023-04-20T05:19:50.685Z,76852.38
2023-04-20T05:22:18.008Z,76844.25
2023-04-20T05:24:45.573Z,76828.03
2023-04-20T05:27:12.846Z,76824.00
2023-04-20T05:29:40.080Z,76815.88
2023-04-20T05:32:07.650Z,76815.88
2023-04-20T05:34:35.077Z,76799.66
2023-04-20T05:37:04.573Z,76787.50
2023-04-20T05:39:31.664Z,76771.28
2023-04-20T05:41:58.838Z,76775.34
2023-04-20T05:44:27.430Z,76799.66
2023-04-20T05:46:54.759Z,76799.66
2023-04-20T05:49:22.300Z,76803.72
2023-04-20T05:51:49.496Z,76811.81
2023-04-20T05:54:17.478Z,76811.81
2023-04-20T05:56:45.569Z,76807.78
2023-04-20T05:59:12.443Z,76783.44
2023-04-20T06:01:40.084Z,76765.19
2023-04-20T06:04:07.273Z,76738.84
2023-04-20T06:06:35.049Z,76722.63
2023-04-20T06:09:02.249Z,76698.31
2023-04-20T06:11:29.720Z,76684.13
2023-04-20T06:13:56.891Z,76667.91
2023-04-20T06:16:24.618Z,76669.94
2023-04-20T06:18:51.685Z,76657.75
2023-04-20T06:21:20.199Z,76641.53
2023-04-20T06:23:47.223Z,76629.38
2023-04-20T06:26:14.707Z,76609.09
2023-04-20T06:28:41.809Z,76594.91
2023-04-20T06:31:09.514Z,76596.94
2023-04-20T06:33:36.854Z,76588.84
2023-04-20T06:36:07.171Z,76588.84
2023-04-20T06:38:34.115Z,76570.59
2023-04-20T06:41:04.352Z,76564.50
2023-04-20T06:43:31.373Z,76550.31
2023-04-20T06:45:59.001Z,76540.19
2023-04-20T06:48:32.233Z,76519.91
2023-04-20T06:51:01.888Z,76503.69
2023-04-20T06:53:29.224Z,76483.44
2023-04-20T06:55:57.084Z,76467.22
2023-04-20T06:58:24.165Z,76459.09
2023-04-20T07:00:51.656Z,76438.84
2023-04-20T07:03:19.545Z,76434.78
2023-04-20T07:05:46.952Z,76420.59
2023-04-20T07:08:16.222Z,76418.56
2023-04-20T07:10:43.815Z,76422.63
2023-04-20T07:13:11.285Z,76410.47
2023-04-20T07:15:38.591Z,76410.47
2023-04-20T07:18:06.465Z,76394.25
2023-04-20T07:20:33.809Z,76386.13
2023-04-20T07:23:01.062Z,76373.97
2023-04-20T07:25:28.552Z,76369.91
2023-04-20T07:27:56.020Z,76357.75
2023-04-20T07:30:23.429Z,76349.66
2023-04-20T07:32:51.032Z,76329.38
2023-04-20T07:35:18.369Z,76317.22
2023-04-20T07:37:45.638Z,76309.13
2023-04-20T07:40:13.526Z,76286.81
2023-04-20T07:42:41.266Z,76272.63
2023-04-20T07:45:09.517Z,76252.34
2023-04-20T07:47:37.534Z,76252.34
2023-04-20T07:50:06.749Z,76223.97
2023-04-20T07:52:34.500Z,76215.88
2023-04-20T07:55:01.528Z,76207.78
2023-04-20T07:57:29.409Z,76203.72
2023-04-20T07:59:56.723Z,76193.56
2023-04-20T08:02:24.498Z,76175.34
2023-04-20T08:04:51.840Z,76163.19
2023-04-20T08:07:19.379Z,76142.91
2023-04-20T08:09:46.481Z,76122.63
2023-04-20T08:12:13.708Z,76110.47
2023-04-20T08:14:41.541Z,76094.25
2023-04-20T08:17:09.255Z,76086.16
2023-04-20T08:19:36.301Z,76074.00
2023-04-20T08:22:05.815Z,76061.84
2023-04-20T08:24:32.832Z,76053.72
2023-04-20T08:27:01.721Z,76049.69
2023-04-20T08:29:28.786Z,76041.56
2023-04-20T08:31:56.418Z,76039.53
2023-04-20T08:34:23.417Z,76029.41
2023-04-20T08:36:51.554Z,76025.34
2023-04-20T08:39:24.410Z,76037.50
2023-04-20T08:41:55.895Z,76041.56
2023-04-20T08:44:24.481Z,76029.41
2023-04-20T08:46:52.243Z,76029.41
2023-04-20T08:49:20.281Z,76021.31
2023-04-20T08:51:48.461Z,76013.19
2023-04-20T08:54:16.651Z,76017.25
2023-04-20T08:56:46.710Z,76009.13
2023-04-20T08:59:14.643Z,76009.13
2023-04-20T09:01:42.659Z,75999.00
2023-04-20T09:04:25.435Z,75976.72
2023-04-20T09:06:55.700Z,75968.59
2023-04-20T09:09:24.805Z,75968.59
2023-04-20T09:12:06.948Z,75968.59
2023-04-20T09:14:44.636Z,75944.28
2023-04-20T09:17:14.709Z,75932.13
2023-04-20T09:19:45.007Z,75944.28
2023-04-20T09:22:12.439Z,75942.25
2023-04-20T09:24:40.909Z,75940.22
2023-04-20T09:27:18.782Z,75940.22
2023-04-20T09:30:00.248Z,75934.16
2023-04-20T09:32:29.263Z,75919.97
2023-04-20T09:34:56.865Z,75917.94
2023-04-20T09:37:25.631Z,75905.78
2023-04-20T09:39:59.666Z,75911.84
2023-04-20T09:42:29.018Z,75919.97
2023-04-20T09:44:57.436Z,75924.00
2023-04-20T09:47:27.432Z,75915.91
2023-04-20T09:49:54.877Z,75907.81
2023-04-20T09:52:26.345Z,75889.56
2023-04-20T09:54:54.867Z,75891.59
2023-04-20T09:57:23.418Z,75887.53
2023-04-20T09:59:53.306Z,75887.53
2023-04-20T10:02:21.510Z,75903.75
2023-04-20T10:04:59.180Z,75911.84
2023-04-20T10:07:28.847Z,75901.72
2023-04-20T10:10:08.185Z,75899.69
2023-04-20T10:12:53.219Z,75885.50
2023-04-20T10:15:24.300Z,75855.09
2023-04-20T10:17:52.200Z,75828.75
2023-04-20T10:20:28.451Z,75790.25
2023-04-20T10:23:09.666Z,75765.94
2023-04-20T10:25:37.447Z,75749.72
2023-04-20T10:28:08.416Z,75741.63
2023-04-20T10:30:36.205Z,75759.84
2023-04-20T10:33:09.923Z,75782.16
2023-04-20T10:35:59.031Z,75794.31
2023-04-20T10:38:34.877Z,75798.38
2023-04-20T10:41:08.722Z,75798.38
2023-04-20T10:43:36.250Z,75778.09
2023-04-20T10:46:03.129Z,75776.06
2023-04-20T10:48:31.006Z,75778.09
2023-04-20T10:50:58.105Z,75761.88
2023-04-20T10:53:26.221Z,75759.84
2023-04-20T10:56:02.192Z,75782.16
2023-04-20T10:58:29.478Z,75786.19
2023-04-20T11:01:01.392Z,75806.47
2023-04-20T11:03:31.391Z,75830.78
2023-04-20T11:06:01.905Z,75810.53
2023-04-20T11:08:43.422Z,75788.22
2023-04-20T11:11:30.637Z,75745.66
2023-04-20T11:14:08.673Z,75713.25
2023-04-20T11:16:49.786Z,75688.94
2023-04-20T11:19:25.142Z,75668.66
2023-04-20T11:21:52.287Z,75654.47
2023-04-20T11:24:37.515Z,75664.59
2023-04-20T11:27:05.083Z,75680.81
2023-04-20T11:29:39.554Z,75690.94
2023-04-20T11:32:09.592Z,75688.94
2023-04-20T11:34:38.502Z,75656.50
2023-04-20T11:37:11.074Z,75652.44
2023-04-20T11:39:39.366Z,75636.22
2023-04-20T11:42:07.507Z,75632.19
2023-04-20T11:44:37.281Z,75611.91
2023-04-20T11:47:04.319Z,75575.44
2023-04-20T11:49:31.579Z,75587.59
2023-04-20T11:51:58.950Z,75567.34
2023-04-20T11:54:27.369Z,75575.44
2023-04-20T11:56:54.488Z,75607.88
2023-04-20T11:59:22.493Z,75650.41
2023-04-20T12:01:49.464Z,75668.66
2023-04-20T12:04:17.338Z,75684.88
2023-04-20T12:06:44.975Z,75692.97
2023-04-20T12:09:13.619Z,75668.66
2023-04-20T12:11:40.962Z,75640.28
2023-04-20T12:14:08.753Z,75611.91
2023-04-20T12:16:35.819Z,75628.13
2023-04-20T12:19:04.084Z,75636.22
2023-04-20T12:21:32.616Z,75652.44
2023-04-20T12:23:59.993Z,75674.75
2023-04-20T12:26:37.332Z,75697.03
2023-04-20T12:29:05.743Z,75715.28
2023-04-20T12:31:32.869Z,75729.47
2023-04-20T12:34:00.387Z,75739.59
2023-04-20T12:36:28.321Z,75749.72
2023-04-20T12:38:56.175Z,75747.69
2023-04-20T12:41:23.593Z,75725.41
2023-04-20T12:43:51.708Z,75697.03
2023-04-20T12:46:19.227Z,75664.59
2023-04-20T12:48:46.927Z,75648.41
2023-04-20T12:51:15.422Z,75628.13
2023-04-20T12:53:42.802Z,75583.53
2023-04-20T12:56:09.920Z,75567.34
2023-04-20T12:58:37.903Z,75575.44
2023-04-20T13:01:04.947Z,75575.44
2023-04-20T13:03:32.772Z,75573.41
2023-04-20T13:06:00.468Z,75581.53
2023-04-20T13:08:27.898Z,75591.66
2023-04-20T13:10:54.763Z,75595.69
2023-04-20T13:13:22.215Z,75605.84
2023-04-20T13:15:49.267Z,75595.69
2023-04-20T13:18:16.715Z,75567.34
2023-04-20T13:20:43.838Z,75514.66
2023-04-20T13:23:12.060Z,75492.34
2023-04-20T13:25:38.994Z,75502.50
2023-04-20T13:28:07.081Z,75530.84
2023-04-20T13:30:34.504Z,75553.16
2023-04-20T13:33:01.808Z,75563.28
2023-04-20T13:35:28.901Z,75567.34
2023-04-20T13:37:56.407Z,75587.59
2023-04-20T13:40:23.497Z,75591.66
2023-04-20T13:42:50.925Z,75605.84
2023-04-20T13:45:18.018Z,75615.97
2023-04-20T13:47:46.029Z,75607.88
2023-04-20T13:50:13.410Z,75583.53
2023-04-20T13:52:41.439Z,75555.19
2023-04-20T13:55:08.825Z,75530.84
2023-04-20T13:57:37.220Z,75498.44
2023-04-20T14:00:05.726Z,75466.00
2023-04-20T14:02:33.453Z,75441.69
2023-04-20T14:05:00.695Z,75435.63
2023-04-20T14:07:27.829Z,75486.28
2023-04-20T14:09:56.614Z,75528.84
2023-04-20T14:12:23.999Z,75567.34
2023-04-20T14:14:51.055Z,75595.69
2023-04-20T14:17:18.570Z,75605.84
2023-04-20T14:19:46.158Z,75620.03
2023-04-20T14:22:13.313Z,75634.22
2023-04-20T14:24:40.861Z,75640.28
2023-04-20T14:27:08.436Z,75646.38
2023-04-20T14:29:35.936Z,75640.28
2023-04-20T14:32:03.380Z,75607.88
2023-04-20T14:34:30.572Z,75561.25
2023-04-20T14:36:57.957Z,75510.59
2023-04-20T14:39:25.817Z,75484.25
2023-04-20T14:41:53.223Z,75494.38
2023-04-20T14:44:21.213Z,75512.63
2023-04-20T14:46:48.521Z,75530.84
2023-04-20T14:49:15.968Z,75571.38
2023-04-20T14:51:43.113Z,75599.75
2023-04-20T14:54:11.293Z,75620.03
2023-04-20T14:56:38.619Z,75636.22
2023-04-20T14:59:05.956Z,75644.34
2023-04-20T15:01:33.360Z,75650.41
2023-04-20T15:04:01.521Z,75652.44
2023-04-20T15:06:29.148Z,75656.50
2023-04-20T15:08:56.863Z,75648.41
2023-04-20T15:11:24.398Z,75640.28
2023-04-20T15:13:52.684Z,75620.03
2023-04-20T15:16:20.304Z,75603.81
2023-04-20T15:18:47.671Z,75593.69
2023-04-20T15:21:14.819Z,75559.22
2023-04-20T15:23:41.774Z,75368.75
2023-04-20T15:26:09.220Z,75068.84
2023-04-20T15:28:36.802Z,74935.13
2023-04-20T15:31:07.503Z,74918.91
2023-04-20T15:33:34.936Z,75020.22
2023-04-20T15:36:02.682Z,75192.44
2023-04-20T15:38:29.753Z,75340.38
2023-04-20T15:40:56.909Z,75443.72
2023-04-20T15:43:24.061Z,75522.75
2023-04-20T15:45:51.274Z,75579.50
2023-04-20T15:48:18.374Z,75611.91
2023-04-20T15:50:45.727Z,75636.22
2023-04-20T15:53:12.959Z,75636.22
2023-04-20T15:55:40.423Z,75632.19
2023-04-20T15:58:07.979Z,75618.00
2023-04-20T16:00:35.139Z,75607.88
2023-04-20T16:03:02.515Z,75595.69
2023-04-20T16:05:30.250Z,75567.34
2023-04-20T16:07:58.073Z,75555.19
2023-04-20T16:10:27.556Z,75571.38
2023-04-20T16:12:54.579Z,75603.81
2023-04-20T16:15:21.830Z,75646.38
2023-04-20T16:17:48.907Z,75684.88
2023-04-20T16:20:16.645Z,75705.13
2023-04-20T16:22:43.640Z,75721.34
2023-04-20T16:25:12.679Z,75729.47
2023-04-20T16:27:39.651Z,75745.66
2023-04-20T16:30:08.676Z,75765.94
2023-04-20T16:32:35.712Z,75782.16
2023-04-20T16:35:03.267Z,75782.16
2023-04-20T16:37:33.631Z,75798.38
2023-04-20T16:40:01.484Z,75806.47
2023-04-20T16:42:28.455Z,75806.47
2023-04-20T16:44:55.936Z,75802.41
2023-04-20T16:47:23.037Z,75802.41
2023-04-20T16:49:50.449Z,75810.53
2023-04-20T16:52:17.290Z,75828.75
2023-04-20T16:54:44.616Z,75838.91
2023-04-20T16:57:11.812Z,75847.00
2023-04-20T16:59:38.972Z,75867.28
2023-04-20T17:02:06.195Z,75877.41
2023-04-20T17:04:33.702Z,75891.59
2023-04-20T17:07:01.130Z,75895.66
2023-04-20T17:09:28.293Z,75903.75
2023-04-20T17:11:56.562Z,75911.84
2023-04-20T17:14:24.695Z,75919.97
2023-04-20T17:16:54.406Z,75926.03
2023-04-20T17:19:21.650Z,75934.16
2023-04-20T17:21:49.322Z,75944.28
2023-04-20T17:24:16.805Z,75944.28
2023-04-20T17:26:46.325Z,75944.28
2023-04-20T17:29:13.816Z,75948.34
2023-04-20T17:31:41.169Z,75964.56
2023-04-20T17:34:09.005Z,75984.81
2023-04-20T17:36:36.033Z,75996.97
2023-04-20T17:39:03.761Z,76005.09
2023-04-20T17:41:30.950Z,76017.25
2023-04-20T17:43:58.111Z,76025.34
2023-04-20T17:46:25.802Z,76025.34
2023-04-20T17:48:53.305Z,76041.56
2023-04-20T17:51:20.838Z,76053.72
2023-04-20T17:53:48.124Z,76057.78
2023-04-20T17:56:15.599Z,76057.78
2023-04-20T17:58:43.046Z,76065.88
2023-04-20T18:01:09.997Z,76069.94
2023-04-20T18:03:37.559Z,76074.00
2023-04-20T18:06:05.423Z,76082.09
2023-04-20T18:08:34.537Z,76094.25
2023-04-20T18:11:05.781Z,76102.38
2023-04-20T18:13:33.649Z,76110.47
2023-04-20T18:16:01.686Z,76114.53
2023-04-20T18:18:29.084Z,76120.63
2023-04-20T18:20:55.975Z,76130.75
2023-04-20T18:23:23.777Z,76138.84
2023-04-20T18:25:52.994Z,76151.00
2023-04-20T18:28:21.666Z,76155.06
2023-04-20T18:30:48.605Z,76163.19
2023-04-20T18:33:16.018Z,76165.19
2023-04-20T18:35:43.578Z,76163.19
2023-04-20T18:38:11.498Z,76165.19
2023-04-20T18:40:39.173Z,76167.22
2023-04-20T18:43:06.826Z,76171.28
2023-04-20T18:45:33.814Z,76169.25
2023-04-20T18:48:02.149Z,76171.28
2023-04-20T18:50:29.390Z,76179.38
2023-04-20T18:52:57.369Z,76185.47
2023-04-20T18:55:24.453Z,76195.59
2023-04-20T18:57:51.852Z,76189.53
2023-04-20T19:00:19.619Z,76199.66
2023-04-20T19:02:47.010Z,76203.72
2023-04-20T19:05:14.786Z,76213.84
2023-04-20T19:07:42.905Z,76207.78
2023-04-20T19:10:10.683Z,76215.88
2023-04-20T19:12:38.591Z,76228.03
2023-04-20T19:15:06.343Z,76234.13
2023-04-20T19:17:34.372Z,76240.19
2023-04-20T19:20:01.343Z,76240.19
2023-04-20T19:22:28.663Z,76248.31
2023-04-20T19:24:55.864Z,76248.31
2023-04-20T19:27:23.101Z,76254.38
2023-04-20T19:29:50.765Z,76260.47
2023-04-20T19:32:18.208Z,76268.56
2023-04-20T19:34:45.409Z,76286.81
2023-04-20T19:37:12.686Z,76292.91
2023-04-20T19:39:39.849Z,76296.94
2023-04-20T19:42:07.794Z,76296.94
2023-04-20T19:44:35.952Z,76303.03
2023-04-20T19:47:03.862Z,76305.06
2023-04-20T19:49:31.050Z,76311.13
2023-04-20T19:51:58.306Z,76317.22
2023-04-20T19:54:25.615Z,76325.31
2023-04-20T19:56:53.026Z,76329.38
2023-04-20T19:59:20.551Z,76341.53
2023-04-20T20:01:50.581Z,76349.66
2023-04-20T20:04:18.183Z,76351.69
2023-04-20T20:06:48.678Z,76361.81
2023-04-20T20:09:21.567Z,76357.75
2023-04-20T20:11:50.736Z,76353.72
2023-04-20T20:14:17.664Z,76353.72
2023-04-20T20:16:45.496Z,76369.91
2023-04-20T20:19:12.525Z,76373.97
2023-04-20T20:21:39.657Z,76390.19
2023-04-20T20:24:07.105Z,76402.34
2023-04-20T20:26:34.281Z,76406.41
2023-04-20T20:29:01.434Z,76414.50
2023-04-20T20:31:28.787Z,76414.50
2023-04-20T20:33:56.311Z,76424.66
2023-04-20T20:36:23.915Z,76420.59
2023-04-20T20:38:50.885Z,76430.72
2023-04-20T20:41:21.643Z,76442.91
2023-04-20T20:43:49.783Z,76446.94
2023-04-20T20:46:17.161Z,76455.06
2023-04-20T20:48:44.350Z,76455.06
2023-04-20T20:51:11.779Z,76463.16
2023-04-20T20:53:38.710Z,76469.25
2023-04-20T20:56:06.681Z,76467.22
2023-04-20T20:58:33.671Z,76475.31
2023-04-20T21:01:01.087Z,76477.34
2023-04-20T21:03:28.400Z,76479.38
2023-04-20T21:05:55.913Z,76487.50
2023-04-20T21:08:22.792Z,76491.53
2023-04-20T21:10:50.219Z,76497.63
2023-04-20T21:13:19.013Z,76495.59
2023-04-20T21:15:47.048Z,76495.59
2023-04-20T21:18:14.115Z,76503.69
2023-04-20T21:20:41.628Z,76503.69
2023-04-20T21:23:08.543Z,76503.69
2023-04-20T21:25:36.003Z,76507.75
2023-04-20T21:28:03.000Z,76511.81
2023-04-20T21:30:30.641Z,76511.81
2023-04-20T21:32:57.649Z,76513.84
2023-04-20T21:35:25.286Z,76515.88
2023-04-20T21:37:52.423Z,76515.88
2023-04-20T21:40:20.415Z,76515.88
2023-04-20T21:42:47.230Z,76526.00
2023-04-20T21:45:14.668Z,76532.09
2023-04-20T21:47:41.758Z,76530.06
2023-04-20T21:50:09.715Z,76532.09
2023-04-20T21:52:36.639Z,76546.28
2023-04-20T21:55:04.483Z,76544.25
2023-04-20T21:57:31.398Z,76548.31
2023-04-20T21:59:58.943Z,76542.22
2023-04-20T22:02:26.136Z,76544.25
2023-04-20T22:04:53.815Z,76548.31
2023-04-20T22:07:21.212Z,76546.28
2023-04-20T22:09:48.402Z,76554.38
2023-04-20T22:12:16.896Z,76560.47
2023-04-20T22:14:46.830Z,76562.50
2023-04-20T22:17:14.437Z,76568.56
2023-04-20T22:19:42.289Z,76576.69
2023-04-20T22:22:09.481Z,76580.72
2023-04-20T22:24:36.624Z,76582.75
2023-04-20T22:27:03.931Z,76588.84
2023-04-20T22:29:31.338Z,76592.91
2023-04-20T22:31:58.270Z,76601.00
2023-04-20T22:34:25.511Z,76601.00
2023-04-20T22:36:52.664Z,76615.19
2023-04-20T22:39:20.090Z,76617.22
2023-04-20T22:41:47.378Z,76625.31
2023-04-20T22:44:14.591Z,76625.31
2023-04-20T22:46:41.576Z,76629.38
2023-04-20T22:49:08.873Z,76633.44
2023-04-20T22:51:36.529Z,76641.53
2023-04-20T22:54:04.336Z,76649.66
2023-04-20T22:56:32.047Z,76645.59
2023-04-20T22:58:59.571Z,76653.72
2023-04-20T23:01:26.683Z,76661.81
2023-04-20T23:03:54.070Z,76665.88
2023-04-20T23:06:22.165Z,76673.97
2023-04-20T23:08:49.677Z,76678.03
2023-04-20T23:11:16.781Z,76682.09
2023-04-20T23:13:44.620Z,76690.19
2023-04-20T23:16:11.664Z,76694.25
2023-04-20T23:18:39.084Z,76702.34
2023-04-20T23:21:06.338Z,76708.44
2023-04-20T23:23:33.653Z,76706.41
2023-04-20T23:26:00.546Z,76708.44
2023-04-20T23:28:28.113Z,76706.41
2023-04-20T23:30:54.940Z,76714.53
2023-04-20T23:33:22.433Z,76726.69
2023-04-20T23:35:49.264Z,76726.69
2023-04-20T23:38:18.430Z,76734.78
2023-04-20T23:40:45.226Z,76738.84
2023-04-20T23:43:12.776Z,76748.97
2023-04-20T23:45:39.904Z,76751.00
2023-04-20T23:48:07.373Z,76759.13
2023-04-20T23:50:34.676Z,76759.13
2023-04-20T23:53:02.400Z,76755.06
2023-04-20T23:55:29.484Z,76763.16
2023-04-20T23:57:58.580Z,76755.06
